Time;durP1;ratioP1;P1;durP2;ratioP2;P2;SDS_P1;SDS_P2;PMS_P1;PMS_P2;Temp;Humidity;BMP_temperature;BMP_pressure;BME280_temperature;BME280_humidity;BME280_pressure;Samples;Min_cycle;Max_cycle;Signal;HPM_P1;HPM_P2
2022/07/16 00:03:04;;;;;;;13.15;2.95;;;;;;;;;;4906116;29;20076;-75
2022/07/16 00:05:30;;;;;;;5.78;3.00;;;;;;;;;;4887672;29;20131;-76
2022/07/16 00:07:56;;;;;;;5.78;3.10;;;;;;;;;;4904369;29;20490;-76
2022/07/16 00:10:22;;;;;;;9.27;3.08;;;;;;;;;;4906702;29;20052;-75
2022/07/16 00:12:48;;;;;;;6.05;2.80;;;;;;;;;;4908693;29;20054;-76
2022/07/16 00:15:14;;;;;;;6.07;3.17;;;;;;;;;;4908075;29;20113;-75
2022/07/16 00:17:40;;;;;;;10.25;3.00;;;;;;;;;;4905229;29;20055;-76
2022/07/16 00:20:06;;;;;;;7.68;2.85;;;;;;;;;;4891161;29;20053;-75
2022/07/16 00:22:32;;;;;;;7.40;3.28;;;;;;;;;;4906384;29;20056;-75
2022/07/16 00:24:58;;;;;;;7.95;3.15;;;;;;;;;;4906882;29;20057;-76
2022/07/16 00:27:24;;;;;;;8.07;2.90;;;;;;;;;;4909151;29;20070;-75
2022/07/16 00:29:50;;;;;;;6.68;2.92;;;;;;;;;;4910621;29;20155;-75
2022/07/16 00:32:16;;;;;;;6.35;2.95;;;;;;;;;;4892214;29;20583;-78
2022/07/16 00:34:42;;;;;;;8.45;3.38;;;;;;;;;;4912334;29;20067;-75
2022/07/16 00:37:08;;;;;;;11.52;2.83;;;;;;;;;;4904928;29;20184;-75
2022/07/16 00:39:34;;;;;;;5.05;2.80;;;;;;;;;;4907653;29;20064;-76
2022/07/16 00:42:00;;;;;;;12.50;3.40;;;;;;;;;;4911379;29;20058;-75
2022/07/16 00:44:26;;;;;;;9.45;2.83;;;;;;;;;;4910587;29;20772;-75
2022/07/16 00:46:52;;;;;;;7.35;2.90;;;;;;;;;;4894379;29;20052;-76
2022/07/16 00:49:21;;;;;;;6.32;2.97;;;;;;;;;;4909557;29;20107;-75
2022/07/16 00:51:50;;;;;;;7.75;3.10;;;;;;;;;;4906469;29;20062;-77
2022/07/16 00:54:16;;;;;;;5.60;2.58;;;;;;;;;;4903011;29;20576;-76
2022/07/16 00:56:42;;;;;;;8.50;2.83;;;;;;;;;;4911216;29;20072;-76
2022/07/16 00:59:08;;;;;;;7.85;2.90;;;;;;;;;;4909846;29;20103;-74
2022/07/16 01:01:34;;;;;;;7.65;3.30;;;;;;;;;;4905823;29;20410;-75
2022/07/16 01:04:04;;;;;;;14.15;4.13;;;;;;;;;;4908910;29;20079;-74
2022/07/16 01:06:31;;;;;;;7.47;3.67;;;;;;;;;;4909821;29;20513;-75
2022/07/16 01:08:58;;;;;;;8.10;3.70;;;;;;;;;;4909085;29;20103;-76
2022/07/16 01:11:25;;;;;;;9.55;3.58;;;;;;;;;;4908223;29;20056;-75
2022/07/16 01:13:51;;;;;;;12.60;3.78;;;;;;;;;;4909622;29;20076;-77
2022/07/16 01:16:19;;;;;;;9.40;3.80;;;;;;;;;;4890096;29;20048;-75
2022/07/16 01:18:46;;;;;;;5.75;3.50;;;;;;;;;;4905223;29;20095;-78
2022/07/16 01:21:14;;;;;;;11.95;3.65;;;;;;;;;;4906311;29;20048;-75
2022/07/16 01:23:45;;;;;;;12.57;3.70;;;;;;;;;;4905153;29;20391;-76
2022/07/16 01:26:12;;;;;;;8.35;3.45;;;;;;;;;;4908679;29;20059;-77
2022/07/16 01:28:38;;;;;;;11.55;3.53;;;;;;;;;;4910729;29;20139;-78
2022/07/16 01:31:04;;;;;;;6.82;3.33;;;;;;;;;;4888853;29;20088;-77
2022/07/16 01:33:36;;;;;;;10.32;3.40;;;;;;;;;;4909567;29;20080;-78
2022/07/16 01:36:13;;;;;;;10.93;3.50;;;;;;;;;;4906705;29;20064;-76
2022/07/16 01:38:44;;;;;;;11.00;3.20;;;;;;;;;;4906736;29;20060;-75
2022/07/16 01:41:12;;;;;;;11.10;3.15;;;;;;;;;;4907995;29;20103;-78
2022/07/16 01:43:38;;;;;;;7.38;3.42;;;;;;;;;;4907941;29;20275;-76
2022/07/16 01:46:05;;;;;;;9.77;3.53;;;;;;;;;;4905317;29;20154;-76
2022/07/16 01:48:30;;;;;;;7.88;3.35;;;;;;;;;;4891147;29;20056;-77
2022/07/16 01:50:57;;;;;;;9.02;3.95;;;;;;;;;;4904469;29;20055;-76
2022/07/16 01:53:24;;;;;;;11.18;3.47;;;;;;;;;;4905382;29;20518;-77
2022/07/16 01:55:50;;;;;;;5.97;3.72;;;;;;;;;;4908496;29;20064;-78
2022/07/16 01:58:16;;;;;;;5.50;3.63;;;;;;;;;;4910626;29;20400;-76
2022/07/16 02:00:45;;;;;;;9.70;3.70;;;;;;;;;;4905776;29;20040;-75
2022/07/16 02:03:12;;;;;;;11.07;3.33;;;;;;;;;;4905240;29;20048;-77
2022/07/16 02:05:39;;;;;;;9.68;3.10;;;;;;;;;;4906129;29;20102;-76
2022/07/16 02:08:05;;;;;;;6.55;3.60;;;;;;;;;;4906181;29;20083;-76
2022/07/16 02:10:32;;;;;;;7.97;3.17;;;;;;;;;;4890270;29;20107;-76
2022/07/16 02:12:58;;;;;;;6.20;3.30;;;;;;;;;;4906122;29;20060;-76
2022/07/16 02:15:24;;;;;;;8.27;3.00;;;;;;;;;;4903118;29;20059;-78
2022/07/16 02:17:50;;;;;;;6.63;3.10;;;;;;;;;;4905580;29;20060;-76
2022/07/16 02:20:17;;;;;;;12.05;3.55;;;;;;;;;;4902095;29;20075;-75
2022/07/16 02:22:43;;;;;;;7.28;3.60;;;;;;;;;;4901590;29;20558;-77
2022/07/16 02:25:12;;;;;;;11.00;3.25;;;;;;;;;;4901513;29;20119;-75
2022/07/16 02:28:05;;;;;;;5.55;3.13;;;;;;;;;;4902715;29;20032;-74
2022/07/16 02:30:26;;;;;;;10.52;3.42;;;;;;;;;;4903740;29;20392;-75
2022/07/16 02:32:52;;;;;;;7.13;3.63;;;;;;;;;;4904917;29;20142;-77
2022/07/16 02:35:17;;;;;;;8.82;3.67;;;;;;;;;;4901660;29;20482;-75
2022/07/16 02:37:43;;;;;;;6.93;2.90;;;;;;;;;;4898788;29;20040;-75
2022/07/16 02:40:10;;;;;;;4.18;3.10;;;;;;;;;;4905543;29;20525;-76
2022/07/16 02:42:35;;;;;;;10.00;2.95;;;;;;;;;;4904823;29;20063;-76
2022/07/16 02:45:02;;;;;;;11.20;3.28;;;;;;;;;;4909375;29;20077;-75
2022/07/16 02:47:28;;;;;;;7.18;3.40;;;;;;;;;;4907570;29;20056;-75
2022/07/16 02:49:54;;;;;;;9.50;3.20;;;;;;;;;;4904973;29;20769;-75
2022/07/16 02:52:20;;;;;;;9.65;2.90;;;;;;;;;;4906481;29;20056;-75
2022/07/16 02:54:46;;;;;;;7.13;2.90;;;;;;;;;;4906780;29;20051;-75
2022/07/16 02:57:12;;;;;;;5.10;2.97;;;;;;;;;;4904465;29;20056;-76
2022/07/16 02:59:38;;;;;;;9.52;3.42;;;;;;;;;;4885299;29;20088;-75
2022/07/16 03:02:03;;;;;;;6.53;2.70;;;;;;;;;;4903079;29;21202;-76
2022/07/16 03:04:29;;;;;;;6.78;2.95;;;;;;;;;;4905412;29;20134;-76
2022/07/16 03:06:56;;;;;;;7.32;3.03;;;;;;;;;;4903165;29;20059;-77
2022/07/16 03:09:21;;;;;;;3.88;2.85;;;;;;;;;;4902874;29;20506;-75
2022/07/16 03:11:47;;;;;;;7.95;2.85;;;;;;;;;;4905336;29;20135;-75
2022/07/16 03:14:13;;;;;;;8.27;2.72;;;;;;;;;;4899910;29;20054;-74
2022/07/16 03:16:39;;;;;;;7.38;3.03;;;;;;;;;;4903008;29;20059;-76
2022/07/16 03:19:05;;;;;;;7.25;2.60;;;;;;;;;;4902987;29;20171;-77
2022/07/16 03:21:31;;;;;;;7.13;2.70;;;;;;;;;;4887486;29;20063;-75
2022/07/16 03:23:57;;;;;;;6.75;2.78;;;;;;;;;;4902611;29;20052;-76
2022/07/16 03:26:23;;;;;;;6.32;3.00;;;;;;;;;;4898995;29;20097;-74
2022/07/16 03:28:49;;;;;;;4.43;2.67;;;;;;;;;;4908159;29;20116;-75
2022/07/16 03:31:17;;;;;;;6.55;2.97;;;;;;;;;;4900627;29;20058;-75
2022/07/16 03:33:43;;;;;;;6.35;2.83;;;;;;;;;;4908951;29;20055;-74
2022/07/16 03:36:10;;;;;;;5.22;2.97;;;;;;;;;;4906210;29;20058;-75
2022/07/16 03:41:21;;;;;;;4.07;2.85;;;;;;;;;;4905070;29;20569;-76
2022/07/16 03:43:47;;;;;;;5.72;3.10;;;;;;;;;;4888892;29;20075;-76
2022/07/16 03:46:13;;;;;;;6.65;3.00;;;;;;;;;;4903690;29;20148;-76
2022/07/16 03:48:42;;;;;;;6.85;3.45;;;;;;;;;;4904869;29;20131;-76
2022/07/16 03:51:08;;;;;;;7.30;3.28;;;;;;;;;;4903389;29;20689;-75
2022/07/16 03:53:35;;;;;;;5.57;3.15;;;;;;;;;;4901893;29;20367;-75
2022/07/16 03:56:02;;;;;;;5.05;3.00;;;;;;;;;;4904361;29;20498;-74
2022/07/16 03:58:28;;;;;;;7.57;2.97;;;;;;;;;;4901458;29;20052;-74
2022/07/16 04:00:54;;;;;;;7.70;2.88;;;;;;;;;;4902038;29;20418;-73
2022/07/16 04:03:21;;;;;;;8.95;3.13;;;;;;;;;;4879387;29;20048;-73
2022/07/16 04:05:47;;;;;;;6.57;2.90;;;;;;;;;;4900405;29;20402;-74
2022/07/16 04:08:13;;;;;;;4.18;3.20;;;;;;;;;;4904019;29;20036;-73
2022/07/16 04:10:39;;;;;;;7.22;2.90;;;;;;;;;;4900671;29;20048;-76
2022/07/16 04:13:04;;;;;;;7.50;2.78;;;;;;;;;;4900514;29;21455;-73
2022/07/16 04:15:30;;;;;;;5.63;2.78;;;;;;;;;;4886891;29;20058;-72
2022/07/16 04:17:56;;;;;;;6.10;2.97;;;;;;;;;;4902345;29;20517;-73
2022/07/16 04:20:22;;;;;;;3.45;2.80;;;;;;;;;;4900600;29;20062;-72
2022/07/16 04:22:48;;;;;;;7.50;3.00;;;;;;;;;;4898890;29;20119;-74
2022/07/16 04:25:14;;;;;;;3.88;2.95;;;;;;;;;;4905657;29;20406;-74
2022/07/16 04:27:41;;;;;;;4.10;2.90;;;;;;;;;;4901101;29;20048;-73
2022/07/16 04:30:09;;;;;;;5.90;2.92;;;;;;;;;;4903224;29;20418;-74
2022/07/16 04:32:36;;;;;;;10.73;3.33;;;;;;;;;;4899422;29;20168;-74
2022/07/16 04:35:03;;;;;;;7.45;3.17;;;;;;;;;;4902111;29;20084;-72
2022/07/16 04:37:28;;;;;;;9.90;3.30;;;;;;;;;;4886065;29;20052;-75
2022/07/16 04:39:54;;;;;;;10.27;3.70;;;;;;;;;;4883814;29;20135;-75
2022/07/16 04:42:20;;;;;;;7.18;3.15;;;;;;;;;;4907450;29;20127;-75
2022/07/16 04:44:46;;;;;;;8.18;3.17;;;;;;;;;;4901024;29;20167;-74
2022/07/16 04:47:12;;;;;;;6.95;3.38;;;;;;;;;;4903777;29;20063;-76
2022/07/16 04:49:38;;;;;;;6.70;3.78;;;;;;;;;;4901721;29;20062;-74
2022/07/16 04:52:05;;;;;;;7.47;3.50;;;;;;;;;;4902266;29;20187;-74
2022/07/16 04:54:31;;;;;;;8.75;3.53;;;;;;;;;;4902740;29;20056;-74
2022/07/16 04:56:57;;;;;;;10.32;4.15;;;;;;;;;;4900062;29;20521;-76
2022/07/16 04:59:23;;;;;;;6.47;3.90;;;;;;;;;;4908380;29;20044;-74
2022/07/16 05:01:49;;;;;;;8.68;3.47;;;;;;;;;;4906177;29;20063;-76
2022/07/16 05:04:14;;;;;;;5.57;3.38;;;;;;;;;;4890200;29;20044;-73
2022/07/16 05:06:40;;;;;;;5.82;3.22;;;;;;;;;;4903249;29;20051;-74
2022/07/16 05:09:07;;;;;;;5.88;3.25;;;;;;;;;;4907584;29;20647;-75
2022/07/16 05:11:33;;;;;;;8.02;3.33;;;;;;;;;;4906654;29;20044;-74
2022/07/16 05:13:58;;;;;;;9.27;3.47;;;;;;;;;;4905500;29;20128;-76
2022/07/16 05:16:25;;;;;;;6.60;3.00;;;;;;;;;;4902155;29;20529;-74
2022/07/16 05:18:51;;;;;;;7.88;3.38;;;;;;;;;;4907753;29;20044;-74
2022/07/16 05:21:17;;;;;;;8.07;3.30;;;;;;;;;;4904325;29;20503;-74
2022/07/16 05:23:43;;;;;;;9.25;3.28;;;;;;;;;;4908674;29;20056;-75
2022/07/16 05:26:09;;;;;;;5.97;3.50;;;;;;;;;;4904197;29;20327;-76
2022/07/16 05:28:35;;;;;;;8.43;3.22;;;;;;;;;;4907450;29;20055;-75
2022/07/16 05:31:02;;;;;;;7.53;3.30;;;;;;;;;;4901979;29;20649;-74
2022/07/16 05:33:28;;;;;;;7.32;3.22;;;;;;;;;;4903704;29;20574;-74
2022/07/16 05:35:54;;;;;;;11.43;4.32;;;;;;;;;;4909328;29;20165;-76
2022/07/16 05:38:20;;;;;;;6.97;3.30;;;;;;;;;;4906865;29;20579;-76
2022/07/16 05:40:46;;;;;;;12.10;3.15;;;;;;;;;;4905043;29;20198;-76
2022/07/16 05:43:12;;;;;;;7.97;3.28;;;;;;;;;;4908496;29;20500;-73
2022/07/16 05:45:38;;;;;;;8.50;3.63;;;;;;;;;;4908795;29;20111;-75
2022/07/16 05:48:04;;;;;;;10.23;3.60;;;;;;;;;;4905712;29;20040;-75
2022/07/16 05:50:30;;;;;;;6.57;3.15;;;;;;;;;;4905325;29;20135;-74
2022/07/16 05:52:56;;;;;;;8.05;3.15;;;;;;;;;;4903371;29;20063;-74
2022/07/16 05:55:22;;;;;;;7.53;3.28;;;;;;;;;;4905264;29;20048;-78
2022/07/16 05:57:48;;;;;;;12.18;3.60;;;;;;;;;;4907213;29;20055;-74
2022/07/16 06:00:15;;;;;;;9.13;3.10;;;;;;;;;;4903234;29;20072;-75
2022/07/16 06:02:41;;;;;;;8.68;3.08;;;;;;;;;;4903756;29;20048;-75
2022/07/16 06:05:08;;;;;;;10.32;3.20;;;;;;;;;;4903308;29;20702;-75
2022/07/16 06:07:34;;;;;;;10.73;3.38;;;;;;;;;;4903546;29;20052;-75
2022/07/16 06:10:00;;;;;;;7.75;3.30;;;;;;;;;;4905018;29;20100;-73
2022/07/16 06:12:26;;;;;;;6.50;3.20;;;;;;;;;;4904188;29;20041;-75
2022/07/16 06:14:52;;;;;;;5.82;3.22;;;;;;;;;;4894126;29;20052;-76
2022/07/16 06:17:18;;;;;;;13.40;3.30;;;;;;;;;;4898778;29;20142;-75
2022/07/16 06:19:44;;;;;;;5.82;3.00;;;;;;;;;;4900542;29;20111;-70
2022/07/16 06:22:10;;;;;;;7.00;3.20;;;;;;;;;;4901105;29;20056;-65
2022/07/16 06:24:36;;;;;;;6.00;3.08;;;;;;;;;;4901201;29;20068;-68
2022/07/16 06:27:03;;;;;;;6.60;3.17;;;;;;;;;;4902350;29;20094;-65
2022/07/16 06:29:29;;;;;;;8.90;3.35;;;;;;;;;;4897513;29;20053;-67
2022/07/16 06:31:55;;;;;;;8.02;3.30;;;;;;;;;;4901075;29;20056;-65
2022/07/16 06:34:21;;;;;;;13.10;3.70;;;;;;;;;;4905198;29;20150;-65
2022/07/16 06:36:48;;;;;;;8.43;3.60;;;;;;;;;;4903366;29;20048;-66
2022/07/16 06:39:13;;;;;;;9.35;3.83;;;;;;;;;;4903502;29;20040;-68
2022/07/16 06:41:39;;;;;;;7.07;3.30;;;;;;;;;;4906141;29;20175;-69
2022/07/16 06:44:07;;;;;;;10.82;3.58;;;;;;;;;;4905379;29;20056;-68
2022/07/16 06:46:33;;;;;;;10.15;3.40;;;;;;;;;;4901887;29;20186;-64
2022/07/16 06:48:59;;;;;;;7.68;3.13;;;;;;;;;;4905558;29;20155;-64
2022/07/16 06:51:26;;;;;;;6.05;3.53;;;;;;;;;;4904837;29;20052;-70
2022/07/16 06:53:52;;;;;;;8.57;3.15;;;;;;;;;;4889250;29;20134;-67
2022/07/16 06:56:18;;;;;;;11.13;3.70;;;;;;;;;;4902764;29;20112;-71
2022/07/16 06:58:44;;;;;;;6.95;3.35;;;;;;;;;;4902876;29;20463;-72
2022/07/16 07:01:10;;;;;;;5.18;2.95;;;;;;;;;;4883725;29;20059;-69
2022/07/16 07:03:39;;;;;;;11.90;3.78;;;;;;;;;;4900699;29;20565;-68
2022/07/16 07:06:06;;;;;;;6.45;3.10;;;;;;;;;;4896770;29;20063;-70
2022/07/16 07:08:32;;;;;;;9.68;3.03;;;;;;;;;;4901380;29;20360;-70
2022/07/16 07:10:59;;;;;;;10.15;3.30;;;;;;;;;;4897202;29;20053;-62
2022/07/16 07:13:27;;;;;;;8.70;2.78;;;;;;;;;;4883273;29;20049;-69
2022/07/16 07:15:53;;;;;;;8.35;2.70;;;;;;;;;;4903532;29;20047;-66
2022/07/16 07:18:18;;;;;;;8.10;3.10;;;;;;;;;;4897951;29;20048;-65
2022/07/16 07:20:44;;;;;;;6.30;2.58;;;;;;;;;;4906293;29;20048;-68
2022/07/16 07:23:11;;;;;;;8.15;3.13;;;;;;;;;;4899132;29;20070;-66
2022/07/16 07:25:37;;;;;;;6.97;2.70;;;;;;;;;;4903287;29;20051;-70
2022/07/16 07:28:03;;;;;;;5.90;2.75;;;;;;;;;;4902037;29;20091;-67
2022/07/16 07:30:29;;;;;;;7.40;2.85;;;;;;;;;;4900807;29;20049;-67
2022/07/16 07:32:56;;;;;;;11.27;3.22;;;;;;;;;;4902422;29;20060;-67
2022/07/16 07:35:22;;;;;;;9.00;3.00;;;;;;;;;;4889516;29;20104;-69
2022/07/16 07:37:48;;;;;;;10.73;3.10;;;;;;;;;;4896848;29;20040;-70
2022/07/16 07:40:14;;;;;;;7.78;3.03;;;;;;;;;;4900812;29;20048;-65
2022/07/16 07:42:40;;;;;;;9.23;2.72;;;;;;;;;;4902888;29;20066;-70
2022/07/16 07:45:07;;;;;;;11.43;3.15;;;;;;;;;;4900668;29;20134;-66
2022/07/16 07:47:32;;;;;;;11.07;2.80;;;;;;;;;;4899772;29;20060;-68
2022/07/16 07:49:59;;;;;;;6.30;2.60;;;;;;;;;;4904659;29;20078;-69
2022/07/16 07:52:24;;;;;;;13.25;3.28;;;;;;;;;;4899727;29;20068;-68
2022/07/16 07:54:51;;;;;;;11.55;2.75;;;;;;;;;;4897018;29;20403;-67
2022/07/16 07:57:17;;;;;;;5.25;2.60;;;;;;;;;;4903014;29;20060;-68
2022/07/16 07:59:43;;;;;;;4.25;2.60;;;;;;;;;;4905153;29;20384;-67
2022/07/16 08:02:09;;;;;;;8.70;2.47;;;;;;;;;;4906107;29;20052;-70
2022/07/16 08:04:35;;;;;;;6.72;2.53;;;;;;;;;;4898786;29;20119;-68
2022/07/16 08:07:01;;;;;;;7.93;2.33;;;;;;;;;;4897171;29;20055;-67
2022/07/16 08:09:27;;;;;;;6.85;2.40;;;;;;;;;;4894677;29;20048;-69
2022/07/16 08:11:53;;;;;;;6.60;2.70;;;;;;;;;;4901041;29;20135;-66
2022/07/16 08:14:19;;;;;;;12.63;3.00;;;;;;;;;;4903221;29;20086;-69
2022/07/16 08:16:45;;;;;;;7.03;3.10;;;;;;;;;;4888933;29;20205;-70
2022/07/16 08:19:11;;;;;;;6.82;3.30;;;;;;;;;;4904770;29;20143;-68
2022/07/16 08:21:37;;;;;;;12.70;3.80;;;;;;;;;;4901699;29;20156;-70
2022/07/16 08:26:48;;;;;;;8.30;3.30;;;;;;;;;;4900489;29;20059;-68
2022/07/16 08:29:14;;;;;;;7.22;3.58;;;;;;;;;;4902040;29;21429;-70
2022/07/16 08:31:40;;;;;;;12.45;3.35;;;;;;;;;;4907175;29;20056;-69
2022/07/16 08:34:06;;;;;;;9.63;3.60;;;;;;;;;;4909395;29;20056;-68
2022/07/16 08:36:33;;;;;;;5.75;3.30;;;;;;;;;;4907538;29;20052;-67
2022/07/16 08:38:59;;;;;;;12.00;4.00;;;;;;;;;;4908078;29;20072;-68
2022/07/16 08:41:26;;;;;;;7.55;3.30;;;;;;;;;;4908123;29;20159;-67
2022/07/16 08:43:52;;;;;;;6.45;2.75;;;;;;;;;;4907659;29;20613;-70
2022/07/16 08:46:20;;;;;;;11.38;2.90;;;;;;;;;;4906347;29;20044;-71
2022/07/16 08:48:48;;;;;;;10.40;2.60;;;;;;;;;;4906086;29;20499;-71
2022/07/16 08:51:22;;;;;;;7.55;3.17;;;;;;;;;;4904531;29;20056;-72
2022/07/16 08:53:50;;;;;;;10.98;2.95;;;;;;;;;;4907159;29;20068;-72
2022/07/16 08:56:17;;;;;;;13.60;3.60;;;;;;;;;;4911019;29;20086;-71
2022/07/16 08:58:43;;;;;;;15.18;3.47;;;;;;;;;;4911167;29;20107;-76
2022/07/16 09:01:10;;;;;;;12.05;3.65;;;;;;;;;;4905584;29;20071;-73
2022/07/16 09:03:36;;;;;;;10.20;2.97;;;;;;;;;;4906606;29;20162;-76
2022/07/16 09:06:02;;;;;;;11.85;3.15;;;;;;;;;;4908354;29;20056;-75
2022/07/16 09:08:28;;;;;;;12.80;3.17;;;;;;;;;;4903504;29;20523;-75
2022/07/16 09:10:54;;;;;;;8.88;3.55;;;;;;;;;;4901939;29;20070;-77
2022/07/16 09:13:20;;;;;;;7.03;3.40;;;;;;;;;;4909064;29;20052;-78
2022/07/16 09:15:46;;;;;;;10.40;2.92;;;;;;;;;;4888356;29;20155;-77
2022/07/16 09:18:20;;;;;;;6.05;3.03;;;;;;;;;;4906683;29;20166;-80
2022/07/16 09:21:00;;;;;;;12.15;3.13;;;;;;;;;;4902510;29;20040;-78
2022/07/16 09:23:37;;;;;;;6.90;3.30;;;;;;;;;;4908047;29;20058;-77
2022/07/16 09:26:11;;;;;;;5.32;3.80;;;;;;;;;;4909231;29;20057;-81
2022/07/16 09:28:43;;;;;;;7.80;3.85;;;;;;;;;;4904070;29;20103;-79
2022/07/16 09:31:31;;;;;;;13.85;3.70;;;;;;;;;;4901017;29;20099;-78
2022/07/16 09:34:01;;;;;;;10.13;3.78;;;;;;;;;;4905320;29;20036;-78
2022/07/16 09:36:27;;;;;;;14.93;4.15;;;;;;;;;;4906445;29;20052;-77
2022/07/16 09:38:53;;;;;;;13.85;3.90;;;;;;;;;;4913770;29;20075;-78
2022/07/16 09:41:21;;;;;;;9.45;3.47;;;;;;;;;;4895141;29;20045;-77
2022/07/16 09:43:48;;;;;;;9.43;3.60;;;;;;;;;;4893402;29;20403;-78
2022/07/16 09:46:22;;;;;;;6.95;3.08;;;;;;;;;;4902561;29;20048;-76
2022/07/16 09:48:49;;;;;;;9.25;3.30;;;;;;;;;;4898840;29;20049;-75
2022/07/16 09:51:20;;;;;;;11.63;3.72;;;;;;;;;;4902452;29;20053;-77
2022/07/16 09:53:48;;;;;;;5.57;3.10;;;;;;;;;;4902828;29;20117;-74
2022/07/16 09:56:17;;;;;;;6.88;3.13;;;;;;;;;;4908473;29;20479;-75
2022/07/16 09:58:55;;;;;;;7.60;2.92;;;;;;;;;;4906474;29;20056;-76
2022/07/16 10:01:22;;;;;;;5.82;2.65;;;;;;;;;;4905193;29;20044;-73
2022/07/16 10:03:49;;;;;;;8.77;2.78;;;;;;;;;;4905245;29;20044;-73
2022/07/16 10:06:16;;;;;;;5.07;2.33;;;;;;;;;;4905764;29;20471;-68
2022/07/16 10:08:43;;;;;;;9.60;2.50;;;;;;;;;;4898532;29;20320;-67
2022/07/16 10:11:10;;;;;;;7.18;2.47;;;;;;;;;;4904099;29;20545;-65
2022/07/16 10:13:37;;;;;;;4.75;2.38;;;;;;;;;;4901913;29;20052;-69
2022/07/16 10:16:06;;;;;;;4.88;2.55;;;;;;;;;;4905296;29;20118;-73
2022/07/16 10:18:58;;;;;;;3.97;2.10;;;;;;;;;;4902427;29;20055;-74
2022/07/16 10:21:24;;;;;;;4.03;1.95;;;;;;;;;;4899714;29;20048;-74
2022/07/16 10:24:05;;;;;;;5.30;1.90;;;;;;;;;;4904738;29;20055;-73
2022/07/16 10:26:32;;;;;;;3.33;1.95;;;;;;;;;;4911818;29;20184;-71
2022/07/16 10:28:59;;;;;;;2.70;1.88;;;;;;;;;;4910771;29;20049;-74
2022/07/16 10:34:39;;;;;;;;;;;;;;;;;;4901937;29;20056;-72
2022/07/16 10:37:12;;;;;;;6.28;2.60;;;;;;;;;;4910641;29;20001;-73
2022/07/16 10:39:58;;;;;;;4.78;2.25;;;;;;;;;;4904078;29;20040;-76
2022/07/16 10:42:24;;;;;;;7.78;2.75;;;;;;;;;;4902998;29;20067;-74
2022/07/16 10:44:50;;;;;;;6.68;2.17;;;;;;;;;;4916045;29;20482;-75
2022/07/16 10:47:17;;;;;;;9.48;2.47;;;;;;;;;;4914403;29;20052;-73
2022/07/16 10:49:44;;;;;;;4.97;2.13;;;;;;;;;;4911014;29;20052;-72
2022/07/16 10:52:16;;;;;;;4.27;2.33;;;;;;;;;;4853322;29;1733970;-75
2022/07/16 10:55:00;;;;;;;5.78;2.30;;;;;;;;;;4910909;29;20055;-72
2022/07/16 10:57:35;;;;;;;5.22;2.50;;;;;;;;;;4912930;29;20052;-73
2022/07/16 11:00:04;;;;;;;5.18;2.30;;;;;;;;;;4899799;29;20036;-73
2022/07/16 11:02:37;;;;;;;6.88;2.28;;;;;;;;;;4914625;29;20094;-77
2022/07/16 11:05:03;;;;;;;9.20;2.50;;;;;;;;;;4907021;29;20040;-74
2022/07/16 11:07:33;;;;;;;6.65;2.45;;;;;;;;;;4913544;29;20044;-75
2022/07/16 11:10:00;;;;;;;5.50;2.50;;;;;;;;;;4907976;29;20135;-72
2022/07/16 11:12:30;;;;;;;6.07;2.40;;;;;;;;;;4897179;29;20044;-74
2022/07/16 11:14:59;;;;;;;6.03;2.55;;;;;;;;;;4916273;29;20051;-73
2022/07/16 11:17:28;;;;;;;5.05;2.15;;;;;;;;;;4899665;29;20075;-73
2022/07/16 11:19:59;;;;;;;3.45;2.17;;;;;;;;;;4907184;29;20079;-71
2022/07/16 11:22:27;;;;;;;4.93;2.03;;;;;;;;;;4895754;29;20100;-71
2022/07/16 11:25:03;;;;;;;3.10;1.75;;;;;;;;;;4879853;29;20080;-72
2022/07/16 11:27:31;;;;;;;3.10;1.83;;;;;;;;;;4895215;29;20393;-72
2022/07/16 11:30:02;;;;;;;4.15;1.90;;;;;;;;;;4897906;29;20475;-73
2022/07/16 11:32:28;;;;;;;5.78;1.85;;;;;;;;;;4902932;29;20084;-73
2022/07/16 11:34:54;;;;;;;3.70;1.92;;;;;;;;;;4902639;29;20128;-73
2022/07/16 11:37:21;;;;;;;2.72;1.60;;;;;;;;;;4909771;29;20122;-73
2022/07/16 11:39:47;;;;;;;3.35;2.08;;;;;;;;;;4900251;29;20410;-72
2022/07/16 11:42:13;;;;;;;5.57;2.00;;;;;;;;;;4901660;29;20052;-73
2022/07/16 11:44:41;;;;;;;8.10;2.10;;;;;;;;;;4903044;29;20044;-74
2022/07/16 11:47:09;;;;;;;3.30;1.92;;;;;;;;;;4912328;29;20048;-74
2022/07/16 11:49:38;;;;;;;4.05;2.08;;;;;;;;;;4909878;29;20757;-75
2022/07/16 11:52:09;;;;;;;6.53;2.25;;;;;;;;;;4904764;29;20273;-72
2022/07/16 11:54:38;;;;;;;2.85;1.90;;;;;;;;;;4907562;29;20524;-74
2022/07/16 11:57:07;;;;;;;4.95;2.10;;;;;;;;;;4907043;29;20083;-75
2022/07/16 11:59:33;;;;;;;3.05;2.10;;;;;;;;;;4914624;29;20130;-73
2022/07/16 12:02:12;;;;;;;3.65;2.17;;;;;;;;;;4903612;29;20139;-77
2022/07/16 12:04:41;;;;;;;8.52;2.00;;;;;;;;;;4909987;29;20116;-72
2022/07/16 12:07:20;;;;;;;3.15;1.80;;;;;;;;;;4895991;29;20046;-75
2022/07/16 12:09:47;;;;;;;4.43;2.40;;;;;;;;;;4909875;29;20048;-73
2022/07/16 12:12:15;;;;;;;5.15;2.08;;;;;;;;;;4917773;29;20557;-72
2022/07/16 12:14:47;;;;;;;4.93;2.60;;;;;;;;;;4916707;29;20055;-72
2022/07/16 12:17:23;;;;;;;2.38;1.70;;;;;;;;;;4914533;29;20055;-72
2022/07/16 12:20:12;;;;;;;4.95;1.70;;;;;;;;;;4914674;29;20502;-71
2022/07/16 12:22:55;;;;;;;4.97;2.03;;;;;;;;;;4893690;29;20056;-72
2022/07/16 12:25:31;;;;;;;3.42;1.90;;;;;;;;;;4914832;29;20454;-73
2022/07/16 12:27:59;;;;;;;2.25;2.00;;;;;;;;;;4912667;29;20114;-73
2022/07/16 12:30:36;;;;;;;3.05;1.60;;;;;;;;;;4914949;29;20052;-71
2022/07/16 12:33:15;;;;;;;3.17;1.80;;;;;;;;;;4907108;29;20056;-72
2022/07/16 12:35:47;;;;;;;3.80;2.00;;;;;;;;;;4908982;29;20406;-70
2022/07/16 12:39:08;;;;;;;2.55;1.60;;;;;;;;;;4904561;29;20100;-74
2022/07/16 12:41:37;;;;;;;5.32;2.00;;;;;;;;;;4897020;29;20528;-72
2022/07/16 12:44:14;;;;;;;2.42;1.75;;;;;;;;;;4897456;29;20104;-73
2022/07/16 12:46:46;;;;;;;5.88;1.65;;;;;;;;;;4899074;29;20252;-72
2022/07/16 12:49:14;;;;;;;1.85;1.38;;;;;;;;;;4883546;29;20052;-73
2022/07/16 12:51:43;;;;;;;6.05;1.98;;;;;;;;;;4902548;29;20100;-74
2022/07/16 12:54:11;;;;;;;5.50;1.90;;;;;;;;;;4900386;29;20123;-73
2022/07/16 12:59:23;;;;;;;5.65;2.28;;;;;;;;;;4914172;29;20047;-72
2022/07/16 13:01:49;;;;;;;4.25;1.70;;;;;;;;;;4906625;29;20049;-74
2022/07/16 13:04:15;;;;;;;4.63;1.98;;;;;;;;;;4910375;29;20052;-72
2022/07/16 13:06:42;;;;;;;2.90;1.90;;;;;;;;;;4902455;29;20048;-72
2022/07/16 13:09:09;;;;;;;5.65;2.05;;;;;;;;;;4901161;29;20037;-71
2022/07/16 13:11:36;;;;;;;3.85;1.77;;;;;;;;;;4881795;29;20177;-74
2022/07/16 13:14:04;;;;;;;6.65;2.00;;;;;;;;;;4907058;29;20059;-73
2022/07/16 13:16:30;;;;;;;5.18;1.88;;;;;;;;;;4900124;29;20192;-72
2022/07/16 13:18:56;;;;;;;4.60;1.88;;;;;;;;;;4894093;29;20123;-73
2022/07/16 13:21:23;;;;;;;2.80;1.50;;;;;;;;;;4903390;29;20491;-73
2022/07/16 13:23:53;;;;;;;4.30;1.70;;;;;;;;;;4913702;29;20048;-72
2022/07/16 13:26:20;;;;;;;1.75;1.50;;;;;;;;;;4898511;29;20188;-73
2022/07/16 13:28:47;;;;;;;4.60;1.80;;;;;;;;;;4896625;29;20448;-72
2022/07/16 13:31:13;;;;;;;2.90;1.75;;;;;;;;;;4901392;29;20041;-72
2022/07/16 13:33:39;;;;;;;5.95;1.80;;;;;;;;;;4896595;29;20412;-76
2022/07/16 13:36:09;;;;;;;6.22;1.80;;;;;;;;;;4901860;29;20503;-74
2022/07/16 13:38:39;;;;;;;4.18;1.83;;;;;;;;;;4904688;29;20053;-74
2022/07/16 13:41:10;;;;;;;6.60;1.75;;;;;;;;;;4895826;29;20499;-71
2022/07/16 13:43:37;;;;;;;5.85;1.70;;;;;;;;;;4895682;29;20443;-73
2022/07/16 13:46:07;;;;;;;2.83;1.50;;;;;;;;;;4895124;29;20047;-73
2022/07/16 13:48:34;;;;;;;5.75;1.70;;;;;;;;;;4903813;29;20059;-73
2022/07/16 13:51:01;;;;;;;6.78;1.70;;;;;;;;;;4904104;29;20052;-72
2022/07/16 13:53:26;;;;;;;2.90;1.58;;;;;;;;;;4911275;29;20580;-73
2022/07/16 13:55:53;;;;;;;3.95;1.80;;;;;;;;;;4913932;29;20055;-77
2022/07/16 13:58:23;;;;;;;4.72;1.60;;;;;;;;;;4914484;29;20044;-72
2022/07/16 14:00:55;;;;;;;4.38;1.65;;;;;;;;;;4914137;29;20048;-73
2022/07/16 14:03:27;;;;;;;4.73;1.83;;;;;;;;;;4913998;29;20047;-72
2022/07/16 14:05:55;;;;;;;3.03;1.77;;;;;;;;;;4915860;29;20066;-73
2022/07/16 14:08:22;;;;;;;2.50;1.45;;;;;;;;;;4910008;29;20056;-73
2022/07/16 14:10:48;;;;;;;4.28;1.60;;;;;;;;;;4916582;29;20192;-75
2022/07/16 14:13:14;;;;;;;2.92;1.85;;;;;;;;;;4920905;29;20542;-79
2022/07/16 14:15:40;;;;;;;5.55;1.90;;;;;;;;;;4914830;29;20483;-74
2022/07/16 14:18:09;;;;;;;4.07;1.50;;;;;;;;;;4912064;29;20115;-74
2022/07/16 14:20:38;;;;;;;2.78;1.70;;;;;;;;;;4909877;29;20075;-72
2022/07/16 14:23:05;;;;;;;4.43;1.70;;;;;;;;;;4912523;29;20048;-71
2022/07/16 14:25:32;;;;;;;3.40;1.83;;;;;;;;;;4899956;29;20068;-70
2022/07/16 14:27:59;;;;;;;4.82;1.85;;;;;;;;;;4912883;29;20562;-74
2022/07/16 14:30:25;;;;;;;3.58;1.70;;;;;;;;;;4908691;29;20462;-72
2022/07/16 14:32:51;;;;;;;4.35;1.75;;;;;;;;;;4912983;29;20062;-73
2022/07/16 14:35:18;;;;;;;4.53;1.70;;;;;;;;;;4898986;29;20049;-73
2022/07/16 14:37:45;;;;;;;8.13;1.92;;;;;;;;;;4913081;29;20052;-76
2022/07/16 14:40:16;;;;;;;2.85;1.75;;;;;;;;;;4913788;29;20127;-76
2022/07/16 14:42:44;;;;;;;6.38;1.90;;;;;;;;;;4896685;29;20413;-76
2022/07/16 14:45:16;;;;;;;3.38;2.20;;;;;;;;;;4915208;29;20048;-78
2022/07/16 14:47:42;;;;;;;4.75;2.03;;;;;;;;;;4901072;29;20461;-77
2022/07/16 14:50:10;;;;;;;3.42;1.80;;;;;;;;;;4894970;29;20048;-76
2022/07/16 14:52:36;;;;;;;4.93;1.90;;;;;;;;;;4894379;29;20080;-77
2022/07/16 14:55:04;;;;;;;5.15;2.05;;;;;;;;;;4896020;29;20055;-78
2022/07/16 14:57:30;;;;;;;5.88;2.05;;;;;;;;;;4898507;29;20047;-77